Time;durP1;ratioP1;P1;durP2;ratioP2;P2;SDS_P1;SDS_P2;PMS_P1;PMS_P2;Temp;Humidity;BMP_temperature;BMP_pressure;BME280_temperature;BME280_humidity;BME280_pressure;Samples;Min_cycle;Max_cycle;Signal;HPM_P1;HPM_P2
2023/12/09 00:01:46;;;;;;;10.07;2.72;;;8.10;99.90;;;;;;4136567;28;20117;-72
2023/12/09 00:03:47;;;;;;;10.10;3.20;;;8.10;99.90;;;;;;4132560;28;20478;-72
2023/12/09 00:05:47;;;;;;;6.53;2.60;;;8.10;99.90;;;;;;4140896;28;20038;-72
2023/12/09 00:07:48;;;;;;;7.85;3.10;;;8.20;99.90;;;;;;4139933;28;20053;-72
2023/12/09 00:09:49;;;;;;;9.98;3.22;;;8.20;99.90;;;;;;4135732;28;20474;-72
2023/12/09 00:11:49;;;;;;;8.23;3.13;;;8.10;99.90;;;;;;4140490;28;20081;-72
2023/12/09 00:13:51;;;;;;;9.90;2.90;;;8.10;99.90;;;;;;4139018;28;20112;-72
2023/12/09 00:15:52;;;;;;;7.05;2.70;;;8.20;99.90;;;;;;4141224;28;20049;-72
2023/12/09 00:17:52;;;;;;;8.07;3.03;;;8.20;99.90;;;;;;4134332;28;20045;-72
2023/12/09 00:19:53;;;;;;;12.60;3.70;;;8.20;99.90;;;;;;4140152;28;20034;-72
2023/12/09 00:21:53;;;;;;;10.80;3.15;;;8.20;99.90;;;;;;4135192;28;20057;-72
2023/12/09 00:23:54;;;;;;;9.80;2.92;;;8.20;99.90;;;;;;4140942;28;20405;-72
2023/12/09 00:25:54;;;;;;;10.05;3.03;;;8.20;99.90;;;;;;4138336;28;20044;-72
2023/12/09 00:27:55;;;;;;;9.30;2.85;;;8.20;99.90;;;;;;4134771;28;20038;-72
2023/12/09 00:29:55;;;;;;;9.35;3.03;;;8.10;99.90;;;;;;4139657;28;20081;-72
2023/12/09 00:31:56;;;;;;;10.63;3.10;;;8.10;99.90;;;;;;4140244;28;20105;-72
2023/12/09 00:33:57;;;;;;;12.95;3.80;;;8.10;99.90;;;;;;4143725;28;20069;-72
2023/12/09 00:35:57;;;;;;;13.30;3.25;;;8.10;99.90;;;;;;4134902;28;20490;-72
2023/12/09 00:37:58;;;;;;;10.40;3.05;;;8.10;99.90;;;;;;4141131;28;20040;-72
2023/12/09 00:39:58;;;;;;;12.32;3.60;;;8.10;99.90;;;;;;4136818;28;20057;-72
2023/12/09 00:41:59;;;;;;;10.57;2.50;;;8.10;99.90;;;;;;4136407;28;20053;-71
2023/12/09 00:43:59;;;;;;;6.95;2.70;;;8.10;99.90;;;;;;4135402;28;20048;-72
2023/12/09 00:46:00;;;;;;;9.98;3.05;;;8.10;99.90;;;;;;4138460;28;20052;-72
2023/12/09 00:48:01;;;;;;;5.13;2.63;;;8.10;99.90;;;;;;4143520;28;20038;-72
2023/12/09 00:50:02;;;;;;;12.45;3.47;;;8.10;99.90;;;;;;4136683;28;20068;-72
2023/12/09 00:52:03;;;;;;;11.82;2.95;;;8.00;99.90;;;;;;4133796;28;20027;-71
2023/12/09 00:54:03;;;;;;;7.93;3.15;;;8.00;99.90;;;;;;4129426;28;20119;-72
2023/12/09 00:56:04;;;;;;;10.45;2.53;;;8.00;99.90;;;;;;4134442;28;20434;-72
2023/12/09 00:58:05;;;;;;;6.95;2.42;;;8.00;99.90;;;;;;4135224;28;20038;-72
2023/12/09 01:00:06;;;;;;;8.98;2.90;;;8.00;99.90;;;;;;4136349;28;20061;-72
2023/12/09 01:02:06;;;;;;;7.82;2.90;;;8.00;99.90;;;;;;4142285;28;20034;-72
2023/12/09 01:04:07;;;;;;;9.48;2.92;;;8.00;99.90;;;;;;4141568;28;20521;-72
2023/12/09 01:06:08;;;;;;;11.05;3.25;;;8.00;99.90;;;;;;4139228;28;20041;-72
2023/12/09 01:08:08;;;;;;;11.30;3.05;;;8.00;99.90;;;;;;4115048;28;20060;-72
2023/12/09 01:10:09;;;;;;;8.30;3.13;;;7.90;99.90;;;;;;4138434;28;20034;-73
2023/12/09 01:12:10;;;;;;;8.27;2.67;;;8.00;99.90;;;;;;4132854;28;20066;-72
2023/12/09 01:14:10;;;;;;;11.50;2.90;;;7.90;99.90;;;;;;4132807;28;20030;-72
2023/12/09 01:16:11;;;;;;;11.93;3.25;;;8.00;99.90;;;;;;4131213;28;20050;-71
2023/12/09 01:18:11;;;;;;;9.27;2.20;;;7.90;99.90;;;;;;4141417;28;20057;-71
2023/12/09 01:20:14;;;;;;;8.80;2.55;;;7.90;99.90;;;;;;4134537;28;20479;-71
2023/12/09 01:22:14;;;;;;;7.43;2.90;;;7.90;99.90;;;;;;4139504;28;20052;-72
2023/12/09 01:24:15;;;;;;;9.90;3.13;;;7.90;99.90;;;;;;4152615;28;20038;-71
2023/12/09 01:26:16;;;;;;;10.43;2.78;;;7.90;99.90;;;;;;4131813;28;20035;-72
2023/12/09 01:28:16;;;;;;;6.68;2.50;;;7.90;99.90;;;;;;4136615;28;20532;-71
2023/12/09 01:30:17;;;;;;;9.60;3.00;;;7.90;99.90;;;;;;4134085;28;20040;-72
2023/12/09 01:32:18;;;;;;;9.20;2.25;;;7.90;99.90;;;;;;4137361;28;20042;-72
2023/12/09 01:34:18;;;;;;;7.18;2.25;;;7.90;99.90;;;;;;4142191;28;20056;-72
2023/12/09 01:36:19;;;;;;;9.73;2.75;;;7.90;99.90;;;;;;4138513;28;20049;-72
2023/12/09 01:38:19;;;;;;;6.82;2.38;;;7.90;99.90;;;;;;4135517;28;20041;-72
2023/12/09 01:40:21;;;;;;;5.95;2.40;;;7.90;99.90;;;;;;4141373;28;20069;-72
2023/12/09 01:42:21;;;;;;;6.28;2.30;;;7.90;99.90;;;;;;4141891;28;20108;-72
2023/12/09 01:44:22;;;;;;;6.90;2.38;;;7.80;99.90;;;;;;4139816;28;20117;-72
2023/12/09 01:46:22;;;;;;;11.57;2.53;;;7.90;99.90;;;;;;4139515;28;20120;-72
2023/12/09 01:48:23;;;;;;;8.95;2.70;;;7.90;99.90;;;;;;4135009;28;20030;-71
2023/12/09 01:50:24;;;;;;;10.50;2.95;;;7.80;99.90;;;;;;4135756;28;20459;-72
2023/12/09 01:52:25;;;;;;;6.70;2.28;;;7.80;99.90;;;;;;4135026;28;20408;-72
2023/12/09 01:54:26;;;;;;;7.65;2.53;;;7.80;99.90;;;;;;4138065;28;20034;-72
2023/12/09 01:56:28;;;;;;;8.98;2.35;;;7.80;99.90;;;;;;4138327;28;20169;-72
2023/12/09 01:58:30;;;;;;;14.45;2.85;;;7.80;99.90;;;;;;4138677;28;20038;-72
2023/12/09 02:00:30;;;;;;;7.82;2.85;;;7.80;99.90;;;;;;4135039;28;20037;-71
2023/12/09 02:02:31;;;;;;;11.43;2.65;;;7.80;99.90;;;;;;4135725;28;20481;-71
2023/12/09 02:04:32;;;;;;;6.63;2.50;;;7.80;99.90;;;;;;4138770;28;20046;-71
2023/12/09 02:06:33;;;;;;;10.65;2.63;;;7.80;99.90;;;;;;4139619;28;20371;-72
2023/12/09 02:08:34;;;;;;;8.25;2.60;;;7.80;99.90;;;;;;4132473;28;20039;-66
2023/12/09 02:10:35;;;;;;;11.07;2.60;;;7.70;99.90;;;;;;4153233;28;20046;-65
2023/12/09 02:12:59;;;;;;;8.23;2.28;;;7.70;99.90;;;;;;4133460;28;20050;-65
2023/12/09 02:15:07;;;;;;;12.68;2.83;;;7.80;99.90;;;;;;4138458;28;20537;-65
2023/12/09 02:17:10;;;;;;;5.75;2.45;;;7.70;99.90;;;;;;4138100;28;20052;-65
2023/12/09 02:19:13;;;;;;;7.82;2.45;;;7.70;99.90;;;;;;4154694;28;20491;-65
2023/12/09 02:21:13;;;;;;;11.27;3.10;;;7.70;99.90;;;;;;4133641;28;20038;-66
2023/12/09 02:23:14;;;;;;;7.15;2.55;;;7.70;99.90;;;;;;4141010;28;20068;-65
2023/12/09 02:25:14;;;;;;;9.13;2.53;;;7.70;99.90;;;;;;4138685;28;20488;-66
2023/12/09 02:27:21;;;;;;;7.57;2.40;;;7.60;99.90;;;;;;4137452;28;20061;-66
2023/12/09 02:29:24;;;;;;;6.97;2.70;;;7.60;99.90;;;;;;4140475;28;20049;-65
2023/12/09 02:31:30;;;;;;;11.60;3.38;;;7.60;99.90;;;;;;4141599;28;20327;-65
2023/12/09 02:33:31;;;;;;;8.60;2.85;;;7.60;99.90;;;;;;4133730;28;20033;-66
2023/12/09 02:35:37;;;;;;;8.27;2.45;;;7.60;99.90;;;;;;4137844;28;20045;-66
2023/12/09 02:37:39;;;;;;;12.63;2.97;;;7.60;99.90;;;;;;4134385;28;20085;-65
2023/12/09 02:39:40;;;;;;;11.70;2.60;;;7.50;99.90;;;;;;4141447;28;20112;-66
2023/12/09 02:41:42;;;;;;;8.05;2.55;;;7.60;99.90;;;;;;4139089;28;20025;-65
2023/12/09 02:43:46;;;;;;;11.65;3.10;;;7.50;99.90;;;;;;4126788;28;20029;-65
2023/12/09 02:45:47;;;;;;;13.73;3.42;;;7.50;99.90;;;;;;4136818;28;20137;-65
2023/12/09 02:47:47;;;;;;;9.82;2.95;;;7.50;99.90;;;;;;4138584;28;20038;-66
2023/12/09 02:49:48;;;;;;;11.02;2.95;;;7.50;99.90;;;;;;4133367;28;20096;-65
2023/12/09 02:51:49;;;;;;;9.27;2.72;;;7.50;99.90;;;;;;4138581;28;20113;-66
2023/12/09 02:53:50;;;;;;;9.38;2.60;;;7.50;99.90;;;;;;4136266;28;20080;-65
2023/12/09 02:55:50;;;;;;;11.02;3.28;;;7.50;99.90;;;;;;4138664;28;20061;-66
2023/12/09 02:57:51;;;;;;;12.50;3.55;;;7.50;99.90;;;;;;4136490;28;20477;-65
2023/12/09 02:59:51;;;;;;;11.05;2.72;;;7.50;99.90;;;;;;4134298;28;20061;-66
2023/12/09 03:01:52;;;;;;;8.43;3.08;;;7.40;99.90;;;;;;4134916;28;20092;-65
2023/12/09 03:03:53;;;;;;;10.32;2.78;;;7.50;99.90;;;;;;4138011;28;20041;-65
2023/12/09 03:05:53;;;;;;;8.93;2.97;;;7.40;99.90;;;;;;4139866;28;20665;-65
2023/12/09 03:07:54;;;;;;;7.13;2.30;;;7.40;99.90;;;;;;4139777;28;20046;-65
2023/12/09 03:09:54;;;;;;;9.50;2.88;;;7.40;99.90;;;;;;4129727;28;20161;-66
2023/12/09 03:11:55;;;;;;;11.10;3.03;;;7.40;99.90;;;;;;4138861;28;20447;-65
2023/12/09 03:13:55;;;;;;;10.77;2.78;;;7.40;99.90;;;;;;4141310;28;20045;-65
2023/12/09 03:15:56;;;;;;;9.85;2.88;;;7.40;99.90;;;;;;4135642;28;20139;-65
2023/12/09 03:17:56;;;;;;;11.90;2.85;;;7.40;99.90;;;;;;4146575;28;20030;-71
2023/12/09 03:19:57;;;;;;;11.38;2.85;;;7.40;99.90;;;;;;4139097;28;20042;-71
2023/12/09 03:21:58;;;;;;;12.00;3.10;;;7.40;99.90;;;;;;4133948;28;20045;-71
2023/12/09 03:23:59;;;;;;;17.75;3.47;;;7.40;99.90;;;;;;4138458;28;20037;-71
2023/12/09 03:25:59;;;;;;;9.73;2.80;;;7.40;99.90;;;;;;4135736;28;20505;-71
2023/12/09 03:28:00;;;;;;;13.05;3.08;;;7.30;99.90;;;;;;4138519;28;20126;-71
2023/12/09 03:30:01;;;;;;;11.23;2.72;;;7.40;99.90;;;;;;4137774;28;20046;-71
2023/12/09 03:32:01;;;;;;;10.23;2.97;;;7.40;99.90;;;;;;4134353;28;20125;-71
2023/12/09 03:34:02;;;;;;;8.32;2.67;;;7.40;99.90;;;;;;4136347;28;20050;-70
2023/12/09 03:36:03;;;;;;;11.10;3.10;;;7.40;99.90;;;;;;4137665;28;20061;-70
2023/12/09 03:38:04;;;;;;;9.00;2.72;;;7.30;99.90;;;;;;4139153;28;20092;-70
2023/12/09 03:40:05;;;;;;;12.02;3.30;;;7.40;99.90;;;;;;4140461;28;20046;-72
2023/12/09 03:42:06;;;;;;;12.38;3.45;;;7.40;99.90;;;;;;4139087;28;20042;-71
2023/12/09 03:44:07;;;;;;;9.82;3.28;;;7.30;99.90;;;;;;4140650;28;20041;-71
2023/12/09 03:46:08;;;;;;;9.45;3.00;;;7.30;99.90;;;;;;4154505;28;20042;-71
2023/12/09 03:48:08;;;;;;;13.80;3.35;;;7.30;99.90;;;;;;4146357;28;20037;-71
2023/12/09 03:50:09;;;;;;;8.45;2.78;;;7.30;99.90;;;;;;4138651;28;20041;-71
2023/12/09 03:52:09;;;;;;;13.77;3.40;;;7.30;99.90;;;;;;4141290;28;20569;-71
2023/12/09 03:54:10;;;;;;;11.77;2.95;;;7.30;99.90;;;;;;4136800;28;20525;-71
2023/12/09 03:56:14;;;;;;;10.00;3.00;;;7.30;99.90;;;;;;4141276;28;20046;-71
2023/12/09 03:58:14;;;;;;;11.43;2.70;;;7.30;99.90;;;;;;4139758;28;20030;-71
2023/12/09 04:00:15;;;;;;;13.88;3.40;;;7.30;99.90;;;;;;4139683;28;20144;-71
2023/12/09 04:02:18;;;;;;;10.60;3.00;;;7.30;99.90;;;;;;4142233;28;20113;-70
2023/12/09 04:04:18;;;;;;;9.02;2.95;;;7.40;99.90;;;;;;4139179;28;20526;-71
2023/12/09 04:06:19;;;;;;;14.73;2.92;;;7.40;99.90;;;;;;4141731;28;20065;-71
2023/12/09 04:08:20;;;;;;;9.45;2.78;;;7.40;99.90;;;;;;4143916;28;20458;-70
2023/12/09 04:10:21;;;;;;;6.85;3.22;;;7.30;99.90;;;;;;4137002;28;20045;-71
2023/12/09 04:12:21;;;;;;;9.23;3.20;;;7.30;99.90;;;;;;4144437;28;20046;-71
2023/12/09 04:14:22;;;;;;;9.82;4.22;;;7.40;99.90;;;;;;4137782;28;20041;-71
2023/12/09 04:16:23;;;;;;;19.00;4.90;;;7.40;99.90;;;;;;4139510;28;20595;-71
2023/12/09 04:18:23;;;;;;;18.25;4.95;;;7.40;99.90;;;;;;4141312;28;20065;-71
2023/12/09 04:20:24;;;;;;;14.35;3.60;;;7.40;99.90;;;;;;4137393;28;20030;-71
2023/12/09 04:22:24;;;;;;;9.32;3.20;;;7.30;99.90;;;;;;4141652;28;20126;-71
2023/12/09 04:24:25;;;;;;;18.27;3.85;;;7.40;99.90;;;;;;4139700;28;20379;-71
2023/12/09 04:26:26;;;;;;;15.13;3.30;;;7.30;99.90;;;;;;4137149;28;20041;-71
2023/12/09 04:28:26;;;;;;;15.70;3.45;;;7.40;99.90;;;;;;4138791;28;20042;-71
2023/12/09 04:30:27;;;;;;;9.40;3.10;;;7.30;99.90;;;;;;4130542;28;20033;-71
2023/12/09 04:32:32;;;;;;;16.95;3.60;;;7.40;99.90;;;;;;4139743;28;20068;-71
2023/12/09 04:34:32;;;;;;;10.93;3.45;;;7.30;99.90;;;;;;4135319;28;20482;-71
2023/12/09 04:36:33;;;;;;;11.30;3.00;;;7.30;99.90;;;;;;4139941;28;20048;-71
2023/12/09 04:38:33;;;;;;;11.93;2.92;;;7.40;99.90;;;;;;4137996;28;20042;-71
2023/12/09 04:40:34;;;;;;;9.30;2.58;;;7.40;99.90;;;;;;4138722;28;20565;-70
2023/12/09 04:42:34;;;;;;;12.27;3.50;;;7.40;99.90;;;;;;4138628;28;20487;-71
2023/12/09 04:44:35;;;;;;;12.73;3.10;;;7.30;99.90;;;;;;4139510;28;20387;-71
2023/12/09 04:46:35;;;;;;;10.10;3.05;;;7.30;99.90;;;;;;4138781;28;20034;-71
2023/12/09 04:48:36;;;;;;;15.82;3.33;;;7.40;99.90;;;;;;4132565;28;20031;-71
2023/12/09 04:50:36;;;;;;;17.13;3.33;;;7.30;99.90;;;;;;4137896;28;20394;-71
2023/12/09 04:52:37;;;;;;;9.88;2.80;;;7.30;99.90;;;;;;4140579;28;20041;-71
2023/12/09 04:54:38;;;;;;;12.98;3.05;;;7.30;99.90;;;;;;4138226;28;20095;-72
2023/12/09 04:56:38;;;;;;;8.10;2.67;;;7.40;99.90;;;;;;4131199;28;20045;-71
2023/12/09 04:58:39;;;;;;;11.98;3.05;;;7.30;99.90;;;;;;4130198;28;20120;-71
2023/12/09 05:00:39;;;;;;;7.78;2.78;;;7.40;99.90;;;;;;4130630;28;20037;-71
2023/12/09 05:02:40;;;;;;;4.72;1.80;;;7.40;99.90;;;;;;4132266;28;20030;-71
2023/12/09 05:04:41;;;;;;;7.32;2.45;;;7.40;99.90;;;;;;4131508;28;20091;-71
2023/12/09 05:06:41;;;;;;;7.40;2.40;;;7.40;99.90;;;;;;4136997;28;20033;-71
2023/12/09 05:08:42;;;;;;;5.97;2.28;;;7.40;99.90;;;;;;4139399;28;20057;-71
2023/12/09 05:10:43;;;;;;;6.10;2.22;;;7.40;99.90;;;;;;4138360;28;20034;-71
2023/12/09 05:12:44;;;;;;;5.38;2.05;;;7.40;99.90;;;;;;4136159;28;20045;-71
2023/12/09 05:14:44;;;;;;;9.15;2.40;;;7.40;99.90;;;;;;4140243;28;20466;-70
2023/12/09 05:16:45;;;;;;;8.70;2.33;;;7.40;99.90;;;;;;4140642;28;20065;-71
2023/12/09 05:18:46;;;;;;;11.95;2.65;;;7.40;99.90;;;;;;4138406;28;20497;-71
2023/12/09 05:20:46;;;;;;;9.35;2.40;;;7.30;99.90;;;;;;4139092;28;20057;-71
2023/12/09 05:22:47;;;;;;;4.93;1.90;;;7.30;99.90;;;;;;4135805;28;20030;-72
2023/12/09 05:24:47;;;;;;;10.23;2.28;;;7.40;99.90;;;;;;4141755;28;20037;-71
2023/12/09 05:26:48;;;;;;;10.55;2.45;;;7.40;99.90;;;;;;4134293;28;20049;-71
2023/12/09 05:28:53;;;;;;;12.25;2.95;;;7.40;99.90;;;;;;4133715;28;20025;-71
2023/12/09 05:30:54;;;;;;;9.40;2.25;;;7.30;99.90;;;;;;4138306;28;20073;-71
2023/12/09 05:32:54;;;;;;;7.20;2.45;;;7.30;99.90;;;;;;4140768;28;20081;-72
2023/12/09 05:34:55;;;;;;;11.52;2.70;;;7.30;99.90;;;;;;4141402;28;20038;-71
2023/12/09 05:36:55;;;;;;;14.27;3.08;;;7.30;99.90;;;;;;4136995;28;20041;-71
2023/12/09 05:38:56;;;;;;;10.98;2.40;;;7.30;99.90;;;;;;4137573;28;20610;-71
2023/12/09 05:40:57;;;;;;;5.97;2.20;;;7.30;99.90;;;;;;4135384;28;20112;-71
2023/12/09 05:42:57;;;;;;;12.40;2.47;;;7.30;99.90;;;;;;4143650;28;20038;-71
2023/12/09 05:44:58;;;;;;;14.20;3.30;;;7.20;99.90;;;;;;4142048;28;20497;-71
2023/12/09 05:46:59;;;;;;;9.15;2.38;;;7.20;99.90;;;;;;4138639;28;20038;-71
2023/12/09 05:48:59;;;;;;;11.68;2.90;;;7.20;99.90;;;;;;4130449;28;20053;-71
2023/12/09 05:51:00;;;;;;;9.65;2.33;;;7.20;99.90;;;;;;4132995;28;20038;-71
2023/12/09 05:53:01;;;;;;;6.82;2.05;;;7.10;99.90;;;;;;4141892;28;20034;-71
2023/12/09 05:55:02;;;;;;;11.40;2.67;;;7.10;99.90;;;;;;4136628;28;20529;-72
2023/12/09 05:57:02;;;;;;;8.13;2.22;;;7.10;99.90;;;;;;4141477;28;20445;-71
2023/12/09 05:59:03;;;;;;;11.57;3.00;;;7.00;99.90;;;;;;4141016;28;20048;-70
2023/12/09 06:01:04;;;;;;;7.03;2.17;;;7.00;99.90;;;;;;4136022;28;20387;-70
2023/12/09 06:03:04;;;;;;;14.05;3.55;;;7.00;99.90;;;;;;4136267;28;20045;-71
2023/12/09 06:05:05;;;;;;;10.23;2.38;;;7.10;99.90;;;;;;4133091;28;20037;-72
2023/12/09 06:07:06;;;;;;;12.38;2.95;;;7.10;99.90;;;;;;4136415;28;20041;-71
2023/12/09 06:09:06;;;;;;;10.38;2.58;;;7.10;99.90;;;;;;4139962;28;20038;-71
2023/12/09 06:11:07;;;;;;;8.88;2.55;;;7.10;99.90;;;;;;4134150;28;20032;-71
2023/12/09 06:13:08;;;;;;;10.40;2.08;;;7.10;99.90;;;;;;4141521;28;20034;-71
2023/12/09 06:15:10;;;;;;;11.73;2.45;;;7.10;99.90;;;;;;4139085;28;20025;-72
2023/12/09 06:17:10;;;;;;;6.33;2.20;;;7.10;99.90;;;;;;4141511;28;20041;-71
2023/12/09 06:19:11;;;;;;;9.20;2.90;;;7.10;99.90;;;;;;4133377;28;20078;-71
2023/12/09 06:21:22;;;;;;;11.38;3.05;;;7.10;99.90;;;;;;4134033;28;20672;-71
2023/12/09 06:23:23;;;;;;;10.50;2.63;;;7.10;99.90;;;;;;4136072;28;20188;-72
2023/12/09 06:25:23;;;;;;;8.48;2.53;;;7.10;99.90;;;;;;4136513;28;20571;-71
2023/12/09 06:27:25;;;;;;;7.85;2.50;;;7.10;99.90;;;;;;4139194;28;20053;-71
2023/12/09 06:29:28;;;;;;;6.68;2.50;;;7.10;99.90;;;;;;4138086;28;20827;-71
2023/12/09 06:31:28;;;;;;;11.02;3.08;;;7.20;99.90;;;;;;4137901;28;20037;-72
2023/12/09 06:33:29;;;;;;;11.25;2.58;;;7.20;99.90;;;;;;4111793;28;20387;-71
2023/12/09 06:35:30;;;;;;;7.15;2.70;;;7.10;99.90;;;;;;4133733;28;20077;-71
2023/12/09 06:37:31;;;;;;;11.35;2.70;;;7.10;99.90;;;;;;4135589;28;20473;-71
2023/12/09 06:39:31;;;;;;;10.52;3.08;;;7.10;99.90;;;;;;4135973;28;20084;-71
2023/12/09 06:41:32;;;;;;;7.30;2.50;;;7.10;99.90;;;;;;4138049;28;20498;-72
2023/12/09 06:43:32;;;;;;;11.23;2.33;;;7.10;99.90;;;;;;4139413;28;20340;-71
2023/12/09 06:45:33;;;;;;;9.18;2.75;;;7.00;99.90;;;;;;4142022;28;20042;-72
2023/12/09 06:47:34;;;;;;;8.98;3.00;;;7.00;99.90;;;;;;4129798;28;20034;-70
2023/12/09 06:49:35;;;;;;;12.35;2.53;;;7.00;99.90;;;;;;4137118;28;20037;-69
2023/12/09 06:51:37;;;;;;;7.40;2.50;;;7.00;99.90;;;;;;4150631;28;20041;-69
2023/12/09 06:53:38;;;;;;;7.75;2.58;;;7.00;99.90;;;;;;4142619;28;20136;-69
2023/12/09 06:55:39;;;;;;;8.23;2.30;;;7.00;99.90;;;;;;4135391;28;20078;-69
2023/12/09 06:57:40;;;;;;;5.75;2.13;;;7.00;99.90;;;;;;4135779;28;20037;-70
2023/12/09 06:59:41;;;;;;;8.05;2.10;;;7.00;99.90;;;;;;4127445;28;20122;-70
2023/12/09 07:01:43;;;;;;;8.38;2.60;;;6.90;99.90;;;;;;4138251;28;20038;-70
2023/12/09 07:03:43;;;;;;;7.13;2.47;;;6.90;99.90;;;;;;4141172;28;20466;-70
2023/12/09 07:05:44;;;;;;;5.88;2.10;;;6.90;99.90;;;;;;4138467;28;20022;-69
2023/12/09 07:07:44;;;;;;;9.70;2.47;;;6.90;99.90;;;;;;4139127;28;20042;-69
2023/12/09 07:09:45;;;;;;;9.90;2.47;;;6.90;99.90;;;;;;4138183;28;20443;-69
2023/12/09 07:11:45;;;;;;;6.45;2.08;;;6.90;99.90;;;;;;4139208;28;20038;-69
2023/12/09 07:13:47;;;;;;;8.13;2.22;;;6.90;99.90;;;;;;4157730;28;20494;-69
2023/12/09 07:15:47;;;;;;;4.65;2.25;;;6.90;99.90;;;;;;4146187;28;20069;-70
2023/12/09 07:17:48;;;;;;;10.77;2.55;;;6.90;99.90;;;;;;4143287;28;20041;-69
2023/12/09 07:19:49;;;;;;;12.52;3.45;;;6.90;99.90;;;;;;4138880;28;20478;-70
2023/12/09 07:21:51;;;;;;;5.95;2.20;;;6.90;99.90;;;;;;4139700;28;20030;-70
2023/12/09 07:23:51;;;;;;;9.40;2.88;;;6.80;99.90;;;;;;4145590;28;20038;-70
2023/12/09 07:25:52;;;;;;;6.20;2.20;;;6.80;99.90;;;;;;4138254;28;20037;-70
2023/12/09 07:27:52;;;;;;;7.30;2.58;;;6.80;99.90;;;;;;4141382;28;20103;-69
2023/12/09 07:29:53;;;;;;;6.35;2.45;;;6.80;99.90;;;;;;4142857;28;20037;-69
2023/12/09 07:31:54;;;;;;;10.85;2.75;;;6.80;99.90;;;;;;4141029;28;20588;-69
2023/12/09 07:33:54;;;;;;;9.77;3.40;;;6.70;99.90;;;;;;4141195;28;20403;-69
2023/12/09 07:35:55;;;;;;;11.02;3.28;;;6.70;99.90;;;;;;4145671;28;20056;-69
2023/12/09 07:37:55;;;;;;;7.13;3.00;;;6.70;99.90;;;;;;4136160;28;20040;-66
2023/12/09 07:39:56;;;;;;;5.60;2.60;;;6.70;99.90;;;;;;4138042;28;20042;-70
2023/12/09 07:41:56;;;;;;;5.88;2.65;;;6.80;99.90;;;;;;4133691;28;20038;-70
2023/12/09 07:43:57;;;;;;;10.93;2.97;;;6.70;99.90;;;;;;4142696;28;20076;-70
2023/12/09 07:45:58;;;;;;;5.75;2.40;;;6.70;99.90;;;;;;4140178;28;20041;-70
2023/12/09 07:47:58;;;;;;;8.60;3.10;;;6.70;99.90;;;;;;4141938;28;20034;-69
2023/12/09 07:49:59;;;;;;;5.95;2.97;;;6.80;99.90;;;;;;4141096;28;20081;-70
2023/12/09 07:51:59;;;;;;;6.68;2.72;;;6.80;99.90;;;;;;4141529;28;20461;-70
2023/12/09 07:54:00;;;;;;;9.15;3.10;;;6.70;99.90;;;;;;4139414;28;20120;-69
2023/12/09 07:56:00;;;;;;;8.65;2.72;;;6.70;99.90;;;;;;4141131;28;20497;-70
2023/12/09 07:58:01;;;;;;;11.38;3.08;;;6.80;99.90;;;;;;4142790;28;20390;-70
2023/12/09 08:00:03;;;;;;;7.03;2.80;;;6.80;99.90;;;;;;4144806;28;20545;-70
2023/12/09 08:02:04;;;;;;;4.50;2.17;;;6.80;99.90;;;;;;4146011;28;20041;-70
2023/12/09 08:04:05;;;;;;;7.55;3.15;;;6.80;99.90;;;;;;4137209;28;20030;-71
2023/12/09 08:06:06;;;;;;;8.60;3.47;;;6.80;99.90;;;;;;4133384;28;20372;-70
2023/12/09 08:08:07;;;;;;;7.53;2.95;;;6.80;99.90;;;;;;4139454;28;20049;-70
2023/12/09 08:10:08;;;;;;;5.53;3.08;;;6.80;99.90;;;;;;4159538;28;20038;-71
2023/12/09 08:12:09;;;;;;;6.03;2.85;;;6.80;99.90;;;;;;4145084;28;20092;-71
2023/12/09 08:14:09;;;;;;;8.68;3.50;;;7.00;99.90;;;;;;4145946;28;20111;-70
2023/12/09 08:16:10;;;;;;;11.90;3.20;;;7.00;99.90;;;;;;4143524;28;20137;-72
2023/12/09 08:18:10;;;;;;;7.95;3.67;;;7.00;99.90;;;;;;4146063;28;20437;-71
2023/12/09 08:20:11;;;;;;;9.15;3.13;;;7.00;99.90;;;;;;4142898;28;20030;-72
2023/12/09 08:22:12;;;;;;;6.80;2.85;;;7.00;99.90;;;;;;4139151;28;20467;-70
2023/12/09 08:24:13;;;;;;;6.75;2.70;;;7.00;99.90;;;;;;4131639;28;20116;-70
2023/12/09 08:26:20;;;;;;;6.07;2.42;;;7.00;99.90;;;;;;4137174;28;20080;-70
2023/12/09 08:28:20;;;;;;;6.50;2.90;;;7.00;99.90;;;;;;4138533;28;20446;-71
2023/12/09 08:30:21;;;;;;;6.40;2.70;;;7.10;99.90;;;;;;4142263;28;20038;-71
2023/12/09 08:32:22;;;;;;;6.72;2.72;;;7.10;99.90;;;;;;4145152;28;20042;-70
2023/12/09 08:34:22;;;;;;;8.40;2.40;;;7.10;99.90;;;;;;4126609;28;20061;-71
2023/12/09 08:36:23;;;;;;;4.78;2.40;;;7.10;99.90;;;;;;4141234;28;20049;-70
2023/12/09 08:38:24;;;;;;;7.90;2.40;;;7.10;99.90;;;;;;4142972;28;20041;-70
2023/12/09 08:40:24;;;;;;;7.07;2.72;;;7.10;99.90;;;;;;4139834;28;20474;-70
2023/12/09 08:42:25;;;;;;;6.88;2.63;;;7.10;99.90;;;;;;4139265;28;20073;-70
2023/12/09 08:44:25;;;;;;;7.68;2.88;;;7.20;99.90;;;;;;4140878;28;20048;-70
2023/12/09 08:46:26;;;;;;;8.93;3.05;;;7.20;99.90;;;;;;4140228;28;20034;-70
2023/12/09 08:48:26;;;;;;;5.72;2.42;;;7.20;99.90;;;;;;4145322;28;20097;-70
2023/12/09 08:50:27;;;;;;;8.13;2.35;;;7.20;99.90;;;;;;4145915;28;20038;-70
2023/12/09 08:52:27;;;;;;;6.30;2.17;;;7.20;99.90;;;;;;4147481;28;20065;-71
2023/12/09 08:54:28;;;;;;;8.52;2.47;;;7.20;99.90;;;;;;4147413;28;20092;-71
2023/12/09 08:56:29;;;;;;;8.25;2.88;;;7.30;99.90;;;;;;4144426;28;20402;-71
2023/12/09 08:58:29;;;;;;;9.50;2.63;;;7.30;99.90;;;;;;4146267;28;20117;-71
2023/12/09 09:00:30;;;;;;;6.30;2.05;;;7.30;99.90;;;;;;4146388;28;20067;-71
2023/12/09 09:02:32;;;;;;;10.40;2.72;;;7.40;99.90;;;;;;4146968;28;20378;-71
2023/12/09 09:04:33;;;;;;;;;;;7.30;99.90;;;;;;4147602;28;20499;-70
2023/12/09 09:06:33;;;;;;;7.20;2.60;;;7.40;99.90;;;;;;4145003;28;19910;-71
2023/12/09 09:08:34;;;;;;;7.97;2.70;;;7.40;99.90;;;;;;4146746;28;20045;-68
2023/12/09 09:10:34;;;;;;;7.32;2.40;;;7.40;99.90;;;;;;4146344;28;20034;-68
2023/12/09 09:12:35;;;;;;;7.53;2.53;;;7.40;99.90;;;;;;4146977;28;20025;-69
2023/12/09 09:14:37;;;;;;;9.68;2.67;;;7.50;99.90;;;;;;4147182;28;20029;-68
2023/12/09 09:16:37;;;;;;;4.87;2.07;;;7.50;99.90;;;;;;4136346;28;20061;-68
2023/12/09 09:18:39;;;;;;;10.95;2.95;;;7.50;99.90;;;;;;4136452;28;20446;-68
2023/12/09 09:20:42;;;;;;;8.27;2.78;;;7.50;99.90;;;;;;4145233;28;20030;-68
2023/12/09 09:22:43;;;;;;;8.43;2.50;;;7.60;99.90;;;;;;4136928;28;20378;-68
2023/12/09 09:24:46;;;;;;;5.97;2.42;;;7.60;99.90;;;;;;4141337;28;20068;-68
2023/12/09 09:26:47;;;;;;;;;;;7.70;99.90;;;;;;4141149;28;20368;-68
2023/12/09 09:28:48;;;;;;;11.18;3.13;;;7.70;99.90;;;;;;4143523;28;19931;-68
2023/12/09 09:30:48;;;;;;;9.13;2.35;;;7.80;99.90;;;;;;4146026;28;20397;-68
2023/12/09 09:32:49;;;;;;;14.20;2.97;;;7.80;99.90;;;;;;4157134;28;20033;-68
2023/12/09 09:34:50;;;;;;;7.55;2.50;;;7.80;99.90;;;;;;4139551;28;20045;-68
2023/12/09 09:36:50;;;;;;;6.38;2.50;;;7.90;99.90;;;;;;4135676;28;20100;-68
2023/12/09 09:38:51;;;;;;;9.85;2.90;;;7.90;99.90;;;;;;4135183;28;20034;-69
2023/12/09 09:40:51;;;;;;;7.78;2.15;;;7.90;99.90;;;;;;4140093;28;20033;-68
2023/12/09 09:42:59;;;;;;;9.10;2.45;;;7.90;99.90;;;;;;4142127;28;20388;-68
2023/12/09 09:45:05;;;;;;;10.23;2.65;;;8.00;99.90;;;;;;4145907;28;20037;-68
2023/12/09 09:47:07;;;;;;;9.02;2.80;;;8.00;99.90;;;;;;4130840;28;20129;-69
2023/12/09 09:49:10;;;;;;;9.63;2.85;;;8.00;99.90;;;;;;4161678;28;20448;-68
2023/12/09 09:51:16;;;;;;;7.97;2.60;;;8.00;99.90;;;;;;4144883;28;20470;-66
2023/12/09 09:53:28;;;;;;;7.63;2.33;;;8.00;99.90;;;;;;4142763;28;20042;-65
2023/12/09 09:55:29;;;;;;;10.60;2.70;;;8.00;99.90;;;;;;4141761;28;20119;-65
2023/12/09 09:57:30;;;;;;;10.68;3.25;;;8.10;99.90;;;;;;4142939;28;20451;-65
2023/12/09 09:59:32;;;;;;;4.78;1.98;;;8.10;99.90;;;;;;4142815;28;20041;-65
2023/12/09 10:01:33;;;;;;;4.72;2.20;;;8.10;99.90;;;;;;4142856;28;20033;-65
2023/12/09 10:03:33;;;;;;;8.88;3.28;;;8.10;99.90;;;;;;4145422;28;20057;-65
2023/12/09 10:05:34;;;;;;;11.80;2.95;;;8.10;99.90;;;;;;4145240;28;20490;-65
2023/12/09 10:07:36;;;;;;;12.55;2.92;;;8.10;99.90;;;;;;4144748;28;20033;-65
2023/12/09 10:09:37;;;;;;;8.88;2.53;;;8.10;99.90;;;;;;4145860;28;20072;-65
2023/12/09 10:11:38;;;;;;;11.05;4.30;;;8.10;99.90;;;;;;4138517;28;20042;-66
2023/12/09 10:13:38;;;;;;;10.60;3.45;;;8.10;99.90;;;;;;4144858;28;20433;-66
2023/12/09 10:15:39;;;;;;;9.65;2.38;;;8.10;99.90;;;;;;4141745;28;20038;-66
2023/12/09 10:17:40;;;;;;;7.72;2.72;;;8.10;99.90;;;;;;4133465;28;20038;-71
2023/12/09 10:19:41;;;;;;;8.65;2.70;;;8.10;99.90;;;;;;4138579;28;20568;-70
2023/12/09 10:21:42;;;;;;;8.70;2.50;;;8.10;99.90;;;;;;4140222;28;20129;-70
2023/12/09 10:23:45;;;;;;;10.02;2.90;;;8.20;99.90;;;;;;4134166;28;20442;-71
2023/12/09 10:25:47;;;;;;;;;;;8.20;99.90;;;;;;4140689;28;20037;-68
2023/12/09 10:27:47;;;;;;;9.90;2.40;;;8.20;99.90;;;;;;4137074;28;19955;-71
2023/12/09 10:29:56;;;;;;;7.13;2.58;;;8.20;99.90;;;;;;4143485;28;20030;-71
2023/12/09 10:32:00;;;;;;;8.10;2.67;;;8.20;99.90;;;;;;4141299;28;20038;-72
2023/12/09 10:34:04;;;;;;;14.30;2.97;;;8.20;99.90;;;;;;4143028;28;20088;-72
2023/12/09 10:36:08;;;;;;;7.45;2.28;;;8.20;99.90;;;;;;4136930;28;20561;-72